sensor_id;sensor_type;location;lat;lon;timestamp;P1;durP1;ratioP1;P2;durP2;ratioP2
16075;SDS011;8142;48.242;11.644;2022-08-21T00:01:23;2.67;;;1.60;;
16075;SDS011;8142;48.242;11.644;2022-08-21T00:03:52;3.27;;;1.80;;
16075;SDS011;8142;48.242;11.644;2022-08-21T00:06:18;2.17;;;1.80;;
16075;SDS011;8142;48.242;11.644;2022-08-21T00:08:44;1.70;;;1.60;;
16075;SDS011;8142;48.242;11.644;2022-08-21T00:11:10;3.87;;;1.70;;
16075;SDS011;8142;48.242;11.644;2022-08-21T00:13:36;1.70;;;1.60;;
16075;SDS011;8142;48.242;11.644;2022-08-21T00:16:02;2.90;;;1.70;;
16075;SDS011;8142;48.242;11.644;2022-08-21T00:18:28;3.57;;;1.80;;
16075;SDS011;8142;48.242;11.644;2022-08-21T00:20:54;3.07;;;1.67;;
16075;SDS011;8142;48.242;11.644;2022-08-21T00:23:20;3.63;;;1.63;;
16075;SDS011;8142;48.242;11.644;2022-08-21T00:25:46;1.73;;;1.47;;
16075;SDS011;8142;48.242;11.644;2022-08-21T00:28:12;1.80;;;1.70;;
16075;SDS011;8142;48.242;11.644;2022-08-21T00:30:39;1.70;;;1.60;;
16075;SDS011;8142;48.242;11.644;2022-08-21T00:33:06;1.80;;;1.70;;
16075;SDS011;8142;48.242;11.644;2022-08-21T00:35:34;1.80;;;1.70;;
16075;SDS011;8142;48.242;11.644;2022-08-21T00:38:03;1.90;;;1.80;;
16075;SDS011;8142;48.242;11.644;2022-08-21T00:40:34;2.00;;;1.67;;
16075;SDS011;8142;48.242;11.644;2022-08-21T00:43:03;2.23;;;1.60;;
16075;SDS011;8142;48.242;11.644;2022-08-21T00:45:31;2.43;;;1.50;;
16075;SDS011;8142;48.242;11.644;2022-08-21T00:47:57;2.17;;;1.70;;
16075;SDS011;8142;48.242;11.644;2022-08-21T00:50:25;3.13;;;1.63;;
16075;SDS011;8142;48.242;11.644;2022-08-21T00:52:55;1.80;;;1.70;;
16075;SDS011;8142;48.242;11.644;2022-08-21T00:55:22;1.83;;;1.60;;
16075;SDS011;8142;48.242;11.644;2022-08-21T00:57:50;2.47;;;1.50;;
16075;SDS011;8142;48.242;11.644;2022-08-21T01:00:19;3.80;;;1.60;;
16075;SDS011;8142;48.242;11.644;2022-08-21T01:02:50;1.70;;;1.60;;
16075;SDS011;8142;48.242;11.644;2022-08-21T01:05:16;3.63;;;1.70;;
16075;SDS011;8142;48.242;11.644;2022-08-21T01:11:05;1.60;;;1.50;;
16075;SDS011;8142;48.242;11.644;2022-08-21T01:13:34;1.50;;;1.40;;
16075;SDS011;8142;48.242;11.644;2022-08-21T01:16:03;2.63;;;1.70;;
16075;SDS011;8142;48.242;11.644;2022-08-21T01:18:30;1.70;;;1.60;;
16075;SDS011;8142;48.242;11.644;2022-08-21T01:21:05;2.03;;;1.77;;
16075;SDS011;8142;48.242;11.644;2022-08-21T01:23:31;2.73;;;1.60;;
16075;SDS011;8142;48.242;11.644;2022-08-21T01:25:58;1.83;;;1.73;;
16075;SDS011;8142;48.242;11.644;2022-08-21T01:28:24;3.00;;;1.70;;
16075;SDS011;8142;48.242;11.644;2022-08-21T01:30:51;1.90;;;1.80;;
16075;SDS011;8142;48.242;11.644;2022-08-21T01:33:20;2.27;;;1.60;;
16075;SDS011;8142;48.242;11.644;2022-08-21T01:35:48;1.90;;;1.80;;
16075;SDS011;8142;48.242;11.644;2022-08-21T01:38:14;3.27;;;1.60;;
16075;SDS011;8142;48.242;11.644;2022-08-21T01:40:39;1.70;;;1.60;;
16075;SDS011;8142;48.242;11.644;2022-08-21T01:43:05;1.70;;;1.60;;
16075;SDS011;8142;48.242;11.644;2022-08-21T01:45:31;2.93;;;1.63;;
16075;SDS011;8142;48.242;11.644;2022-08-21T01:47:57;2.23;;;1.60;;
16075;SDS011;8142;48.242;11.644;2022-08-21T01:50:23;1.50;;;1.40;;
16075;SDS011;8142;48.242;11.644;2022-08-21T01:52:49;1.63;;;1.53;;
16075;SDS011;8142;48.242;11.644;2022-08-21T01:55:16;1.90;;;1.80;;
16075;SDS011;8142;48.242;11.644;2022-08-21T01:57:43;3.67;;;2.13;;
16075;SDS011;8142;48.242;11.644;2022-08-21T02:00:10;1.63;;;1.53;;
16075;SDS011;8142;48.242;11.644;2022-08-21T02:02:39;2.13;;;1.60;;
16075;SDS011;8142;48.242;11.644;2022-08-21T02:05:06;2.13;;;1.40;;
16075;SDS011;8142;48.242;11.644;2022-08-21T02:07:37;1.67;;;1.57;;
16075;SDS011;8142;48.242;11.644;2022-08-21T02:10:06;3.10;;;1.60;;
16075;SDS011;8142;48.242;11.644;2022-08-21T02:12:33;1.70;;;1.60;;
16075;SDS011;8142;48.242;11.644;2022-08-21T02:14:59;2.40;;;1.70;;
16075;SDS011;8142;48.242;11.644;2022-08-21T02:17:25;1.83;;;1.60;;
16075;SDS011;8142;48.242;11.644;2022-08-21T02:19:51;1.60;;;1.50;;
16075;SDS011;8142;48.242;11.644;2022-08-21T02:22:17;3.10;;;1.60;;
16075;SDS011;8142;48.242;11.644;2022-08-21T02:24:43;2.73;;;1.47;;
16075;SDS011;8142;48.242;11.644;2022-08-21T02:27:09;4.03;;;1.70;;
16075;SDS011;8142;48.242;11.644;2022-08-21T02:29:35;2.10;;;1.60;;
16075;SDS011;8142;48.242;11.644;2022-08-21T02:32:01;1.60;;;1.50;;
16075;SDS011;8142;48.242;11.644;2022-08-21T02:34:27;1.83;;;1.60;;
16075;SDS011;8142;48.242;11.644;2022-08-21T02:36:52;1.67;;;1.57;;
16075;SDS011;8142;48.242;11.644;2022-08-21T02:39:18;1.70;;;1.60;;
16075;SDS011;8142;48.242;11.644;2022-08-21T02:41:44;1.80;;;1.70;;
16075;SDS011;8142;48.242;11.644;2022-08-21T02:44:10;1.97;;;1.77;;
16075;SDS011;8142;48.242;11.644;2022-08-21T02:46:36;1.67;;;1.57;;
16075;SDS011;8142;48.242;11.644;2022-08-21T02:49:02;1.90;;;1.70;;
16075;SDS011;8142;48.242;11.644;2022-08-21T02:51:28;3.43;;;1.60;;
16075;SDS011;8142;48.242;11.644;2022-08-21T02:53:53;3.43;;;1.47;;
16075;SDS011;8142;48.242;11.644;2022-08-21T02:56:20;1.90;;;1.50;;
16075;SDS011;8142;48.242;11.644;2022-08-21T02:58:48;1.97;;;1.67;;
16075;SDS011;8142;48.242;11.644;2022-08-21T03:01:16;1.50;;;1.40;;
16075;SDS011;8142;48.242;11.644;2022-08-21T03:03:43;1.60;;;1.50;;
16075;SDS011;8142;48.242;11.644;2022-08-21T03:06:12;1.67;;;1.57;;
16075;SDS011;8142;48.242;11.644;2022-08-21T03:08:39;1.70;;;1.60;;
16075;SDS011;8142;48.242;11.644;2022-08-21T03:11:05;2.33;;;1.60;;
16075;SDS011;8142;48.242;11.644;2022-08-21T03:13:32;1.80;;;1.70;;
16075;SDS011;8142;48.242;11.644;2022-08-21T03:15:58;3.67;;;1.60;;
16075;SDS011;8142;48.242;11.644;2022-08-21T03:18:24;1.87;;;1.53;;
16075;SDS011;8142;48.242;11.644;2022-08-21T03:20:50;2.73;;;1.70;;
16075;SDS011;8142;48.242;11.644;2022-08-21T03:23:17;1.60;;;1.50;;
16075;SDS011;8142;48.242;11.644;2022-08-21T03:25:44;1.80;;;1.70;;
16075;SDS011;8142;48.242;11.644;2022-08-21T03:28:12;2.30;;;1.40;;
16075;SDS011;8142;48.242;11.644;2022-08-21T03:30:41;2.67;;;1.50;;
16075;SDS011;8142;48.242;11.644;2022-08-21T03:33:08;2.90;;;1.60;;
16075;SDS011;8142;48.242;11.644;2022-08-21T03:35:34;1.60;;;1.50;;
16075;SDS011;8142;48.242;11.644;2022-08-21T03:38:00;3.10;;;1.60;;
16075;SDS011;8142;48.242;11.644;2022-08-21T03:40:26;4.73;;;1.43;;
16075;SDS011;8142;48.242;11.644;2022-08-21T03:42:52;1.60;;;1.50;;
16075;SDS011;8142;48.242;11.644;2022-08-21T03:45:19;2.40;;;1.53;;
16075;SDS011;8142;48.242;11.644;2022-08-21T03:47:52;1.70;;;1.60;;
16075;SDS011;8142;48.242;11.644;2022-08-21T03:50:24;2.73;;;1.50;;
16075;SDS011;8142;48.242;11.644;2022-08-21T03:52:53;2.10;;;1.60;;
16075;SDS011;8142;48.242;11.644;2022-08-21T03:55:19;2.87;;;1.50;;
16075;SDS011;8142;48.242;11.644;2022-08-21T03:57:45;1.90;;;1.80;;
16075;SDS011;8142;48.242;11.644;2022-08-21T04:00:11;2.73;;;1.70;;
16075;SDS011;8142;48.242;11.644;2022-08-21T04:02:38;2.07;;;1.70;;
16075;SDS011;8142;48.242;11.644;2022-08-21T04:05:05;1.70;;;1.60;;
16075;SDS011;8142;48.242;11.644;2022-08-21T04:07:32;1.70;;;1.60;;
16075;SDS011;8142;48.242;11.644;2022-08-21T04:09:58;2.37;;;1.70;;
16075;SDS011;8142;48.242;11.644;2022-08-21T04:12:24;2.57;;;1.53;;
16075;SDS011;8142;48.242;11.644;2022-08-21T04:14:50;1.80;;;1.70;;
16075;SDS011;8142;48.242;11.644;2022-08-21T04:17:18;1.77;;;1.67;;
16075;SDS011;8142;48.242;11.644;2022-08-21T04:19:44;1.83;;;1.60;;
16075;SDS011;8142;48.242;11.644;2022-08-21T04:22:10;2.03;;;1.60;;
16075;SDS011;8142;48.242;11.644;2022-08-21T04:24:36;1.70;;;1.60;;
16075;SDS011;8142;48.242;11.644;2022-08-21T04:27:02;2.27;;;1.77;;
16075;SDS011;8142;48.242;11.644;2022-08-21T04:29:28;1.60;;;1.50;;
16075;SDS011;8142;48.242;11.644;2022-08-21T04:31:54;2.03;;;1.63;;
16075;SDS011;8142;48.242;11.644;2022-08-21T04:34:20;2.53;;;1.87;;
16075;SDS011;8142;48.242;11.644;2022-08-21T04:36:46;2.80;;;1.53;;
16075;SDS011;8142;48.242;11.644;2022-08-21T04:39:11;2.27;;;1.80;;
16075;SDS011;8142;48.242;11.644;2022-08-21T04:41:37;1.60;;;1.50;;
16075;SDS011;8142;48.242;11.644;2022-08-21T04:44:03;1.97;;;1.60;;
16075;SDS011;8142;48.242;11.644;2022-08-21T04:46:29;2.53;;;1.70;;
16075;SDS011;8142;48.242;11.644;2022-08-21T04:48:55;1.70;;;1.60;;
16075;SDS011;8142;48.242;11.644;2022-08-21T04:51:25;3.07;;;1.60;;
16075;SDS011;8142;48.242;11.644;2022-08-21T04:54:02;1.60;;;1.50;;
16075;SDS011;8142;48.242;11.644;2022-08-21T04:56:39;1.77;;;1.67;;
16075;SDS011;8142;48.242;11.644;2022-08-21T04:59:14;2.33;;;1.80;;
16075;SDS011;8142;48.242;11.644;2022-08-21T05:01:44;2.50;;;1.90;;
16075;SDS011;8142;48.242;11.644;2022-08-21T05:04:12;1.70;;;1.60;;
16075;SDS011;8142;48.242;11.644;2022-08-21T05:06:42;1.80;;;1.70;;
16075;SDS011;8142;48.242;11.644;2022-08-21T05:09:12;1.83;;;1.73;;
16075;SDS011;8142;48.242;11.644;2022-08-21T05:11:40;1.60;;;1.50;;
16075;SDS011;8142;48.242;11.644;2022-08-21T05:14:07;3.63;;;1.80;;
16075;SDS011;8142;48.242;11.644;2022-08-21T05:16:33;3.10;;;1.80;;
16075;SDS011;8142;48.242;11.644;2022-08-21T05:18:58;2.60;;;1.80;;
16075;SDS011;8142;48.242;11.644;2022-08-21T05:21:24;2.07;;;1.93;;
16075;SDS011;8142;48.242;11.644;2022-08-21T05:23:50;2.50;;;1.70;;
16075;SDS011;8142;48.242;11.644;2022-08-21T05:26:16;1.80;;;1.70;;
16075;SDS011;8142;48.242;11.644;2022-08-21T05:28:42;2.67;;;1.80;;
16075;SDS011;8142;48.242;11.644;2022-08-21T05:31:07;1.90;;;1.80;;
16075;SDS011;8142;48.242;11.644;2022-08-21T05:33:33;2.07;;;1.93;;
16075;SDS011;8142;48.242;11.644;2022-08-21T05:35:59;2.20;;;2.00;;
16075;SDS011;8142;48.242;11.644;2022-08-21T05:38:25;2.50;;;1.90;;
16075;SDS011;8142;48.242;11.644;2022-08-21T05:40:53;2.83;;;1.80;;
16075;SDS011;8142;48.242;11.644;2022-08-21T05:43:20;2.30;;;1.80;;
16075;SDS011;8142;48.242;11.644;2022-08-21T05:45:46;2.67;;;1.97;;
16075;SDS011;8142;48.242;11.644;2022-08-21T05:48:20;2.37;;;2.00;;
16075;SDS011;8142;48.242;11.644;2022-08-21T05:50:48;2.97;;;2.10;;
16075;SDS011;8142;48.242;11.644;2022-08-21T05:53:16;3.00;;;1.83;;
16075;SDS011;8142;48.242;11.644;2022-08-21T05:55:43;2.17;;;1.87;;
16075;SDS011;8142;48.242;11.644;2022-08-21T05:58:09;1.97;;;1.77;;
16075;SDS011;8142;48.242;11.644;2022-08-21T06:00:35;1.70;;;1.60;;
16075;SDS011;8142;48.242;11.644;2022-08-21T06:03:01;2.77;;;1.90;;
16075;SDS011;8142;48.242;11.644;2022-08-21T06:05:28;2.00;;;1.80;;
16075;SDS011;8142;48.242;11.644;2022-08-21T06:07:54;1.73;;;1.63;;
16075;SDS011;8142;48.242;11.644;2022-08-21T06:10:20;2.40;;;1.70;;
16075;SDS011;8142;48.242;11.644;2022-08-21T06:12:46;2.93;;;1.70;;
16075;SDS011;8142;48.242;11.644;2022-08-21T06:15:12;1.90;;;1.77;;
16075;SDS011;8142;48.242;11.644;2022-08-21T06:17:37;1.70;;;1.50;;
16075;SDS011;8142;48.242;11.644;2022-08-21T06:20:03;1.80;;;1.40;;
16075;SDS011;8142;48.242;11.644;2022-08-21T06:22:30;1.73;;;1.63;;
16075;SDS011;8142;48.242;11.644;2022-08-21T06:24:56;1.90;;;1.50;;
16075;SDS011;8142;48.242;11.644;2022-08-21T06:27:22;2.03;;;1.40;;
16075;SDS011;8142;48.242;11.644;2022-08-21T06:29:47;2.03;;;1.60;;
16075;SDS011;8142;48.242;11.644;2022-08-21T06:32:13;2.40;;;1.47;;
16075;SDS011;8142;48.242;11.644;2022-08-21T06:34:41;1.73;;;1.50;;
16075;SDS011;8142;48.242;11.644;2022-08-21T06:37:07;2.83;;;1.40;;
16075;SDS011;8142;48.242;11.644;2022-08-21T06:39:33;2.03;;;1.70;;
16075;SDS011;8142;48.242;11.644;2022-08-21T06:41:59;3.90;;;1.60;;
16075;SDS011;8142;48.242;11.644;2022-08-21T06:44:25;4.53;;;1.63;;
16075;SDS011;8142;48.242;11.644;2022-08-21T06:46:51;2.57;;;1.60;;
16075;SDS011;8142;48.242;11.644;2022-08-21T06:49:17;3.20;;;1.90;;
16075;SDS011;8142;48.242;11.644;2022-08-21T06:51:43;1.97;;;1.80;;
16075;SDS011;8142;48.242;11.644;2022-08-21T06:54:09;2.27;;;1.73;;
16075;SDS011;8142;48.242;11.644;2022-08-21T06:56:36;2.17;;;1.70;;
16075;SDS011;8142;48.242;11.644;2022-08-21T06:59:03;2.10;;;1.73;;
16075;SDS011;8142;48.242;11.644;2022-08-21T07:01:30;3.50;;;1.77;;
16075;SDS011;8142;48.242;11.644;2022-08-21T07:03:57;2.70;;;2.07;;
16075;SDS011;8142;48.242;11.644;2022-08-21T07:06:23;2.60;;;1.83;;
16075;SDS011;8142;48.242;11.644;2022-08-21T07:08:50;3.80;;;2.10;;
16075;SDS011;8142;48.242;11.644;2022-08-21T07:11:25;2.07;;;1.70;;
16075;SDS011;8142;48.242;11.644;2022-08-21T07:13:51;4.17;;;2.10;;
16075;SDS011;8142;48.242;11.644;2022-08-21T07:16:22;1.83;;;1.73;;
16075;SDS011;8142;48.242;11.644;2022-08-21T07:18:49;2.40;;;2.20;;
16075;SDS011;8142;48.242;11.644;2022-08-21T07:21:15;2.43;;;2.20;;
16075;SDS011;8142;48.242;11.644;2022-08-21T07:23:42;3.13;;;2.10;;
16075;SDS011;8142;48.242;11.644;2022-08-21T07:26:11;3.00;;;2.20;;
16075;SDS011;8142;48.242;11.644;2022-08-21T07:28:38;4.57;;;2.57;;
16075;SDS011;8142;48.242;11.644;2022-08-21T07:31:04;2.80;;;2.27;;
16075;SDS011;8142;48.242;11.644;2022-08-21T07:33:32;2.77;;;2.40;;
16075;SDS011;8142;48.242;11.644;2022-08-21T07:35:59;3.03;;;2.40;;
16075;SDS011;8142;48.242;11.644;2022-08-21T07:38:25;3.47;;;2.23;;
16075;SDS011;8142;48.242;11.644;2022-08-21T07:40:52;5.03;;;2.57;;
16075;SDS011;8142;48.242;11.644;2022-08-21T07:43:21;2.70;;;2.50;;
16075;SDS011;8142;48.242;11.644;2022-08-21T07:45:47;2.57;;;2.20;;
16075;SDS011;8142;48.242;11.644;2022-08-21T07:48:15;4.50;;;2.70;;
16075;SDS011;8142;48.242;11.644;2022-08-21T07:50:41;3.13;;;2.50;;
16075;SDS011;8142;48.242;11.644;2022-08-21T07:53:08;3.27;;;2.50;;
16075;SDS011;8142;48.242;11.644;2022-08-21T07:55:34;3.47;;;2.40;;
16075;SDS011;8142;48.242;11.644;2022-08-21T07:58:00;2.73;;;2.40;;
16075;SDS011;8142;48.242;11.644;2022-08-21T08:00:27;2.83;;;2.50;;
16075;SDS011;8142;48.242;11.644;2022-08-21T08:02:54;4.00;;;2.70;;
16075;SDS011;8142;48.242;11.644;2022-08-21T08:05:22;3.57;;;2.60;;
16075;SDS011;8142;48.242;11.644;2022-08-21T08:07:49;2.83;;;2.30;;
16075;SDS011;8142;48.242;11.644;2022-08-21T08:10:16;3.90;;;2.40;;
16075;SDS011;8142;48.242;11.644;2022-08-21T08:12:43;3.77;;;2.40;;
16075;SDS011;8142;48.242;11.644;2022-08-21T08:15:12;3.07;;;2.77;;
16075;SDS011;8142;48.242;11.644;2022-08-21T08:17:41;3.13;;;2.80;;
16075;SDS011;8142;48.242;11.644;2022-08-21T08:20:08;3.53;;;2.90;;
16075;SDS011;8142;48.242;11.644;2022-08-21T08:22:36;2.43;;;2.20;;
16075;SDS011;8142;48.242;11.644;2022-08-21T08:25:03;5.00;;;2.63;;
16075;SDS011;8142;48.242;11.644;2022-08-21T08:27:30;4.00;;;2.73;;
16075;SDS011;8142;48.242;11.644;2022-08-21T08:29:56;2.73;;;2.27;;
16075;SDS011;8142;48.242;11.644;2022-08-21T08:32:23;3.07;;;2.70;;
16075;SDS011;8142;48.242;11.644;2022-08-21T08:34:49;2.77;;;2.50;;
16075;SDS011;8142;48.242;11.644;2022-08-21T08:37:17;4.73;;;2.20;;
16075;SDS011;8142;48.242;11.644;2022-08-21T08:39:43;4.60;;;2.63;;
16075;SDS011;8142;48.242;11.644;2022-08-21T08:42:19;4.17;;;2.30;;
16075;SDS011;8142;48.242;11.644;2022-08-21T08:44:50;3.40;;;2.50;;
16075;SDS011;8142;48.242;11.644;2022-08-21T08:47:32;2.97;;;2.23;;
16075;SDS011;8142;48.242;11.644;2022-08-21T08:50:07;3.17;;;2.53;;
16075;SDS011;8142;48.242;11.644;2022-08-21T08:55:47;4.13;;;2.87;;
16075;SDS011;8142;48.242;11.644;2022-08-21T08:58:18;3.47;;;2.63;;
16075;SDS011;8142;48.242;11.644;2022-08-21T09:00:49;4.17;;;2.67;;
16075;SDS011;8142;48.242;11.644;2022-08-21T09:03:17;3.50;;;2.70;;
16075;SDS011;8142;48.242;11.644;2022-08-21T09:05:48;4.37;;;2.93;;
16075;SDS011;8142;48.242;11.644;2022-08-21T09:08:33;3.50;;;3.00;;
16075;SDS011;8142;48.242;11.644;2022-08-21T09:11:31;4.03;;;3.00;;
16075;SDS011;8142;48.242;11.644;2022-08-21T09:19:28;3.53;;;2.60;;
16075;SDS011;8142;48.242;11.644;2022-08-21T09:25:01;4.07;;;2.73;;
16075;SDS011;8142;48.242;11.644;2022-08-21T09:27:35;2.90;;;2.60;;
16075;SDS011;8142;48.242;11.644;2022-08-21T09:30:02;2.90;;;2.60;;
16075;SDS011;8142;48.242;11.644;2022-08-21T09:32:31;3.33;;;2.80;;
16075;SDS011;8142;48.242;11.644;2022-08-21T09:35:21;2.60;;;2.40;;
16075;SDS011;8142;48.242;11.644;2022-08-21T09:40:28;3.17;;;2.57;;
16075;SDS011;8142;48.242;11.644;2022-08-21T09:45:37;3.47;;;2.80;;
16075;SDS011;8142;48.242;11.644;2022-08-21T09:48:11;3.07;;;2.77;;
16075;SDS011;8142;48.242;11.644;2022-08-21T09:50:43;3.33;;;2.90;;
16075;SDS011;8142;48.242;11.644;2022-08-21T09:55:49;3.20;;;2.90;;
16075;SDS011;8142;48.242;11.644;2022-08-21T09:58:43;3.07;;;2.77;;
16075;SDS011;8142;48.242;11.644;2022-08-21T10:01:13;2.60;;;2.40;;
16075;SDS011;8142;48.242;11.644;2022-08-21T10:03:47;3.23;;;2.70;;
16075;SDS011;8142;48.242;11.644;2022-08-21T10:06:22;2.90;;;2.60;;
16075;SDS011;8142;48.242;11.644;2022-08-21T10:08:50;2.60;;;2.40;;
16075;SDS011;8142;48.242;11.644;2022-08-21T10:11:16;3.03;;;2.60;;
16075;SDS011;8142;48.242;11.644;2022-08-21T10:13:56;4.23;;;2.77;;
16075;SDS011;8142;48.242;11.644;2022-08-21T10:16:36;3.77;;;2.37;;
16075;SDS011;8142;48.242;11.644;2022-08-21T10:21:59;3.23;;;2.63;;
16075;SDS011;8142;48.242;11.644;2022-08-21T10:35:25;3.33;;;2.70;;
16075;SDS011;8142;48.242;11.644;2022-08-21T10:52:22;3.30;;;3.00;;
16075;SDS011;8142;48.242;11.644;2022-08-21T10:54:52;4.43;;;3.03;;
16075;SDS011;8142;48.242;11.644;2022-08-21T10:57:46;3.30;;;3.00;;
16075;SDS011;8142;48.242;11.644;2022-08-21T11:00:12;3.80;;;3.00;;
16075;SDS011;8142;48.242;11.644;2022-08-21T11:05:16;4.10;;;2.90;;
16075;SDS011;8142;48.242;11.644;2022-08-21T11:08:28;3.03;;;2.73;;
16075;SDS011;8142;48.242;11.644;2022-08-21T11:10:48;2.77;;;2.57;;
16075;SDS011;8142;48.242;11.644;2022-08-21T11:13:27;3.00;;;2.80;;
16075;SDS011;8142;48.242;11.644;2022-08-21T11:16:10;3.23;;;2.93;;
16075;SDS011;8142;48.242;11.644;2022-08-21T11:21:49;3.20;;;2.90;;
16075;SDS011;8142;48.242;11.644;2022-08-21T11:27:24;3.17;;;2.87;;
16075;SDS011;8142;48.242;11.644;2022-08-21T11:29:55;4.13;;;2.70;;
16075;SDS011;8142;48.242;11.644;2022-08-21T11:32:39;3.23;;;2.93;;
16075;SDS011;8142;48.242;11.644;2022-08-21T11:35:34;3.23;;;2.93;;
16075;SDS011;8142;48.242;11.644;2022-08-21T11:46:44;2.63;;;2.30;;
16075;SDS011;8142;48.242;11.644;2022-08-21T11:49:23;2.97;;;2.60;;
16075;SDS011;8142;48.242;11.644;2022-08-21T11:52:00;3.13;;;2.73;;
16075;SDS011;8142;48.242;11.644;2022-08-21T11:54:37;3.57;;;2.77;;
16075;SDS011;8142;48.242;11.644;2022-08-21T11:57:21;4.63;;;2.80;;
16075;SDS011;8142;48.242;11.644;2022-08-21T12:02:50;4.73;;;2.40;;
16075;SDS011;8142;48.242;11.644;2022-08-21T12:05:31;2.50;;;2.30;;
16075;SDS011;8142;48.242;11.644;2022-08-21T12:10:40;4.00;;;2.20;;
16075;SDS011;8142;48.242;11.644;2022-08-21T12:13:25;2.80;;;2.40;;
16075;SDS011;8142;48.242;11.644;2022-08-21T12:16:04;3.63;;;2.67;;
16075;SDS011;8142;48.242;11.644;2022-08-21T12:18:32;3.03;;;2.73;;
16075;SDS011;8142;48.242;11.644;2022-08-21T12:21:01;3.40;;;2.97;;
16075;SDS011;8142;48.242;11.644;2022-08-21T12:23:32;3.23;;;2.60;;
16075;SDS011;8142;48.242;11.644;2022-08-21T12:28:41;2.73;;;2.53;;
16075;SDS011;8142;48.242;11.644;2022-08-21T12:34:16;3.20;;;2.60;;
16075;SDS011;8142;48.242;11.644;2022-08-21T12:37:00;3.57;;;2.50;;
16075;SDS011;8142;48.242;11.644;2022-08-21T12:39:39;2.50;;;2.30;;
16075;SDS011;8142;48.242;11.644;2022-08-21T12:42:15;3.33;;;2.20;;
16075;SDS011;8142;48.242;11.644;2022-08-21T12:44:55;3.77;;;2.63;;
16075;SDS011;8142;48.242;11.644;2022-08-21T12:49:58;2.60;;;2.40;;
16075;SDS011;8142;48.242;11.644;2022-08-21T12:52:34;2.60;;;2.40;;
16075;SDS011;8142;48.242;11.644;2022-08-21T12:55:06;2.87;;;2.63;;
16075;SDS011;8142;48.242;11.644;2022-08-21T12:57:36;2.80;;;2.57;;
16075;SDS011;8142;48.242;11.644;2022-08-21T13:00:06;2.90;;;2.70;;
16075;SDS011;8142;48.242;11.644;2022-08-21T13:02:39;3.43;;;2.50;;
16075;SDS011;8142;48.242;11.644;2022-08-21T13:05:12;2.63;;;2.43;;
16075;SDS011;8142;48.242;11.644;2022-08-21T13:07:44;3.77;;;2.50;;
16075;SDS011;8142;48.242;11.644;2022-08-21T13:10:23;2.47;;;2.27;;
16075;SDS011;8142;48.242;11.644;2022-08-21T13:12:58;2.63;;;2.43;;
16075;SDS011;8142;48.242;11.644;2022-08-21T13:15:31;2.50;;;2.30;;
16075;SDS011;8142;48.242;11.644;2022-08-21T13:18:00;2.60;;;2.33;;
16075;SDS011;8142;48.242;11.644;2022-08-21T13:20:29;2.40;;;2.20;;
16075;SDS011;8142;48.242;11.644;2022-08-21T13:22:55;2.60;;;2.40;;
16075;SDS011;8142;48.242;11.644;2022-08-21T13:25:25;2.40;;;2.20;;
16075;SDS011;8142;48.242;11.644;2022-08-21T13:28:10;2.60;;;2.40;;
16075;SDS011;8142;48.242;11.644;2022-08-21T13:30:47;3.10;;;2.30;;
16075;SDS011;8142;48.242;11.644;2022-08-21T13:33:17;2.60;;;2.40;;
16075;SDS011;8142;48.242;11.644;2022-08-21T13:35:50;3.20;;;2.40;;
16075;SDS011;8142;48.242;11.644;2022-08-21T13:38:26;3.00;;;2.00;;
16075;SDS011;8142;48.242;11.644;2022-08-21T13:41:05;2.40;;;2.00;;
16075;SDS011;8142;48.242;11.644;2022-08-21T13:43:44;2.63;;;2.33;;
16075;SDS011;8142;48.242;11.644;2022-08-21T13:46:16;2.73;;;2.30;;
16075;SDS011;8142;48.242;11.644;2022-08-21T13:48:46;3.00;;;2.47;;
16075;SDS011;8142;48.242;11.644;2022-08-21T13:51:11;2.37;;;2.17;;
16075;SDS011;8142;48.242;11.644;2022-08-21T13:56:06;3.63;;;2.20;;
16075;SDS011;8142;48.242;11.644;2022-08-21T13:58:42;2.60;;;2.40;;
16075;SDS011;8142;48.242;11.644;2022-08-21T14:01:21;3.17;;;2.37;;
16075;SDS011;8142;48.242;11.644;2022-08-21T14:04:06;2.67;;;2.23;;
16075;SDS011;8142;48.242;11.644;2022-08-21T14:06:39;2.27;;;2.07;;
16075;SDS011;8142;48.242;11.644;2022-08-21T14:09:12;3.27;;;2.30;;
16075;SDS011;8142;48.242;11.644;2022-08-21T14:11:48;2.90;;;2.37;;
16075;SDS011;8142;48.242;11.644;2022-08-21T14:14:28;3.67;;;2.20;;
16075;SDS011;8142;48.242;11.644;2022-08-21T14:16:58;2.27;;;2.00;;
16075;SDS011;8142;48.242;11.644;2022-08-21T14:19:43;2.30;;;2.10;;
16075;SDS011;8142;48.242;11.644;2022-08-21T14:25:04;2.50;;;2.30;;
16075;SDS011;8142;48.242;11.644;2022-08-21T14:27:54;4.03;;;2.50;;
16075;SDS011;8142;48.242;11.644;2022-08-21T14:30:31;3.60;;;2.60;;
16075;SDS011;8142;48.242;11.644;2022-08-21T14:33:02;2.63;;;2.43;;
16075;SDS011;8142;48.242;11.644;2022-08-21T14:35:30;2.77;;;2.20;;
16075;SDS011;8142;48.242;11.644;2022-08-21T14:37:56;3.87;;;2.23;;
16075;SDS011;8142;48.242;11.644;2022-08-21T14:40:23;2.20;;;2.00;;
16075;SDS011;8142;48.242;11.644;2022-08-21T14:42:50;2.97;;;2.10;;
16075;SDS011;8142;48.242;11.644;2022-08-21T14:47:51;3.97;;;2.40;;
16075;SDS011;8142;48.242;11.644;2022-08-21T14:50:18;3.17;;;2.20;;
16075;SDS011;8142;48.242;11.644;2022-08-21T14:52:44;5.27;;;2.57;;
16075;SDS011;8142;48.242;11.644;2022-08-21T14:55:11;2.90;;;2.17;;
16075;SDS011;8142;48.242;11.644;2022-08-21T14:57:40;3.17;;;2.17;;
16075;SDS011;8142;48.242;11.644;2022-08-21T15:00:12;3.23;;;2.30;;
16075;SDS011;8142;48.242;11.644;2022-08-21T15:02:42;2.60;;;2.27;;
16075;SDS011;8142;48.242;11.644;2022-08-21T15:05:08;2.87;;;2.57;;
16075;SDS011;8142;48.242;11.644;2022-08-21T15:07:34;2.80;;;2.50;;
16075;SDS011;8142;48.242;11.644;2022-08-21T15:10:00;3.60;;;2.30;;
16075;SDS011;8142;48.242;11.644;2022-08-21T15:12:27;5.13;;;2.53;;
16075;SDS011;8142;48.242;11.644;2022-08-21T15:14:53;2.87;;;2.27;;
16075;SDS011;8142;48.242;11.644;2022-08-21T15:17:19;2.67;;;2.37;;
16075;SDS011;8142;48.242;11.644;2022-08-21T15:19:45;3.80;;;2.57;;
16075;SDS011;8142;48.242;11.644;2022-08-21T15:22:11;3.53;;;2.40;;
16075;SDS011;8142;48.242;11.644;2022-08-21T15:24:37;3.03;;;2.70;;
16075;SDS011;8142;48.242;11.644;2022-08-21T15:27:03;2.93;;;2.57;;
16075;SDS011;8142;48.242;11.644;2022-08-21T15:29:31;3.83;;;2.30;;
16075;SDS011;8142;48.242;11.644;2022-08-21T15:32:02;7.40;;;2.90;;
16075;SDS011;8142;48.242;11.644;2022-08-21T15:34:50;3.93;;;2.80;;
16075;SDS011;8142;48.242;11.644;2022-08-21T15:37:17;3.97;;;2.70;;
16075;SDS011;8142;48.242;11.644;2022-08-21T15:39:43;3.47;;;2.70;;
16075;SDS011;8142;48.242;11.644;2022-08-21T15:42:09;4.03;;;2.83;;
16075;SDS011;8142;48.242;11.644;2022-08-21T15:44:37;2.70;;;2.50;;
16075;SDS011;8142;48.242;11.644;2022-08-21T15:47:14;3.30;;;2.60;;
16075;SDS011;8142;48.242;11.644;2022-08-21T15:49:42;3.77;;;2.90;;
16075;SDS011;8142;48.242;11.644;2022-08-21T15:52:17;4.47;;;2.73;;
16075;SDS011;8142;48.242;11.644;2022-08-21T15:54:44;2.77;;;2.57;;
16075;SDS011;8142;48.242;11.644;2022-08-21T15:57:12;3.30;;;3.00;;
16075;SDS011;8142;48.242;11.644;2022-08-21T15:59:42;5.33;;;3.00;;
16075;SDS011;8142;48.242;11.644;2022-08-21T16:02:14;4.27;;;2.77;;
16075;SDS011;8142;48.242;11.644;2022-08-21T16:04:43;3.13;;;2.70;;
16075;SDS011;8142;48.242;11.644;2022-08-21T16:07:09;3.10;;;2.33;;
16075;SDS011;8142;48.242;11.644;2022-08-21T16:09:35;3.23;;;2.90;;
16075;SDS011;8142;48.242;11.644;2022-08-21T16:12:01;4.63;;;2.83;;
16075;SDS011;8142;48.242;11.644;2022-08-21T16:14:29;4.17;;;2.70;;
16075;SDS011;8142;48.242;11.644;2022-08-21T16:16:56;3.83;;;2.57;;
16075;SDS011;8142;48.242;11.644;2022-08-21T16:19:23;3.33;;;2.60;;
16075;SDS011;8142;48.242;11.644;2022-08-21T16:21:50;4.03;;;2.97;;
16075;SDS011;8142;48.242;11.644;2022-08-21T16:24:16;3.27;;;2.87;;
16075;SDS011;8142;48.242;11.644;2022-08-21T16:26:42;5.37;;;4.80;;
16075;SDS011;8142;48.242;11.644;2022-08-21T16:29:08;6.03;;;4.47;;
16075;SDS011;8142;48.242;11.644;2022-08-21T16:31:34;3.83;;;3.10;;